createdAt,value
2019-01-20T00:00:21.710Z,93228.83
2019-01-20T00:00:45.471Z,93236.25
2019-01-20T00:01:09.790Z,93227.67
2019-01-20T00:01:32.430Z,93228.66
2019-01-20T00:01:55.394Z,93231.06
2019-01-20T00:02:19.611Z,93226.94
2019-01-20T00:02:42.371Z,93228.53
2019-01-20T00:03:05.150Z,93230.83
2019-01-20T00:03:27.872Z,93230.02
2019-01-20T00:03:50.671Z,93227.73
2019-01-20T00:04:13.190Z,93222.74
2019-01-20T00:04:36.023Z,93226.44
2019-01-20T00:04:58.830Z,93223.92
2019-01-20T00:05:21.610Z,93221.88
2019-01-20T00:05:44.310Z,93223.52
2019-01-20T00:06:06.854Z,93224.29
2019-01-20T00:06:29.553Z,93223.03
2019-01-20T00:06:52.273Z,93221.52
2019-01-20T00:07:15.229Z,93227.14
2019-01-20T00:07:37.911Z,93221.00
2019-01-20T00:08:00.611Z,93227.52
2019-01-20T00:08:23.152Z,93225.23
2019-01-20T00:08:46.114Z,93227.02
2019-01-20T00:09:10.367Z,93223.83
2019-01-20T00:09:33.113Z,93223.12
2019-01-20T00:09:55.829Z,93223.72
2019-01-20T00:10:20.711Z,93225.59
2019-01-20T00:10:43.793Z,93221.02
2019-01-20T00:11:06.591Z,93218.04
2019-01-20T00:11:29.756Z,93222.42
2019-01-20T00:11:52.369Z,93219.23
2019-01-20T00:12:15.531Z,93220.49
2019-01-20T00:12:38.145Z,93221.73
2019-01-20T00:13:00.869Z,93221.32
2019-01-20T00:13:23.587Z,93216.64
2019-01-20T00:13:46.303Z,93220.30
2019-01-20T00:14:09.024Z,93223.70
2019-01-20T00:14:31.771Z,93217.55
2019-01-20T00:14:54.470Z,93220.69
2019-01-20T00:15:17.254Z,93213.58
2019-01-20T00:15:39.950Z,93218.61
2019-01-20T00:16:02.582Z,93217.51
2019-01-20T00:16:25.350Z,93217.90
2019-01-20T00:16:48.150Z,93216.03
2019-01-20T00:17:10.788Z,93221.05
2019-01-20T00:17:33.345Z,93219.22
2019-01-20T00:17:56.033Z,93217.03
2019-01-20T00:18:18.624Z,93219.06
2019-01-20T00:18:41.290Z,93211.89
2019-01-20T00:19:03.950Z,93213.49
2019-01-20T00:19:27.090Z,93217.59
2019-01-20T00:19:49.825Z,93216.04
2019-01-20T00:20:12.888Z,93211.06
2019-01-20T00:20:35.611Z,93207.88
2019-01-20T00:20:58.230Z,93210.27
2019-01-20T00:21:20.850Z,93209.38
2019-01-20T00:21:45.291Z,93209.08
2019-01-20T00:22:08.384Z,93210.31
2019-01-20T00:22:30.970Z,93215.00
2019-01-20T00:22:54.144Z,93206.42
2019-01-20T00:23:16.865Z,93207.12
2019-01-20T00:23:39.492Z,93215.51
2019-01-20T00:24:02.061Z,93212.22
2019-01-20T00:24:24.813Z,93207.22
2019-01-20T00:24:49.454Z,93205.39
2019-01-20T00:25:12.144Z,93208.66
2019-01-20T00:25:34.912Z,93206.28
2019-01-20T00:25:57.612Z,93208.78
2019-01-20T00:26:20.230Z,93208.48
2019-01-20T00:26:43.291Z,93209.17
2019-01-20T00:27:06.911Z,93207.69
2019-01-20T00:27:31.813Z,93212.11
2019-01-20T00:27:54.911Z,93208.52
2019-01-20T00:28:17.690Z,93207.33
2019-01-20T00:28:40.363Z,93210.02
2019-01-20T00:29:03.069Z,93210.92
2019-01-20T00:29:25.610Z,93208.53
2019-01-20T00:29:48.224Z,93205.73
2019-01-20T00:30:11.210Z,93206.44
2019-01-20T00:30:34.624Z,93205.23
2019-01-20T00:30:57.331Z,93208.73
2019-01-20T00:31:19.870Z,93205.54
2019-01-20T00:31:42.512Z,93203.44
2019-01-20T00:32:05.190Z,93206.23
2019-01-20T00:32:27.971Z,93200.84
2019-01-20T00:32:50.770Z,93200.66
2019-01-20T00:33:14.825Z,93203.67
2019-01-20T00:33:37.652Z,93206.03
2019-01-20T00:34:00.351Z,93201.14
2019-01-20T00:34:23.451Z,93205.23
2019-01-20T00:34:46.144Z,93201.58
2019-01-20T00:35:09.271Z,93197.79
2019-01-20T00:35:31.905Z,93203.17
2019-01-20T00:35:55.071Z,93198.98
2019-01-20T00:36:17.951Z,93198.98
2019-01-20T00:36:40.704Z,93201.14
2019-01-20T00:37:03.222Z,93197.80
2019-01-20T00:37:26.430Z,93198.69
2019-01-20T00:37:49.827Z,93198.69
2019-01-20T00:38:12.509Z,93196.95
2019-01-20T00:38:36.731Z,93199.84
2019-01-20T00:38:59.580Z,93200.23
2019-01-20T00:39:22.111Z,93201.03
2019-01-20T00:39:47.550Z,93198.23
2019-01-20T00:40:10.168Z,93200.73
2019-01-20T00:40:33.911Z,93199.33
2019-01-20T00:40:56.453Z,93197.70
2019-01-20T00:41:24.066Z,93198.69
2019-01-20T00:41:43.839Z,93196.41
2019-01-20T00:42:06.483Z,93195.60
2019-01-20T00:42:29.230Z,93197.09
2019-01-20T00:42:51.951Z,93194.44
2019-01-20T00:43:14.619Z,93198.63
2019-01-20T00:43:37.344Z,93194.14
2019-01-20T00:44:00.064Z,93191.91
2019-01-20T00:44:22.730Z,93196.58
2019-01-20T00:44:45.890Z,93199.56
2019-01-20T00:45:08.790Z,93194.58
2019-01-20T00:45:31.452Z,93197.68
2019-01-20T00:45:54.190Z,93194.20
2019-01-20T00:46:16.753Z,93198.39
2019-01-20T00:46:39.590Z,93195.50
2019-01-20T00:47:02.140Z,93190.62
2019-01-20T00:47:24.863Z,93190.86
2019-01-20T00:47:47.890Z,93193.41
2019-01-20T00:48:10.990Z,93193.08
2019-01-20T00:48:36.864Z,93188.95
2019-01-20T00:48:59.586Z,93193.14
2019-01-20T00:49:22.692Z,93191.12
2019-01-20T00:49:45.408Z,93184.27
2019-01-20T00:50:08.231Z,93190.02
2019-01-20T00:50:31.289Z,93186.50
2019-01-20T00:50:54.211Z,93188.04
2019-01-20T00:51:16.930Z,93186.85
2019-01-20T00:51:39.548Z,93189.23
2019-01-20T00:52:02.419Z,93191.62
2019-01-20T00:52:25.111Z,93188.17
2019-01-20T00:52:47.744Z,93193.63
2019-01-20T00:53:10.332Z,93193.94
2019-01-20T00:53:33.071Z,93188.56
2019-01-20T00:53:55.991Z,93194.73
2019-01-20T00:54:18.672Z,93192.36
2019-01-20T00:54:41.349Z,93184.05
2019-01-20T00:55:03.890Z,93190.44
2019-01-20T00:55:26.490Z,93193.03
2019-01-20T00:55:49.142Z,93193.94
2019-01-20T00:56:11.904Z,93193.16
2019-01-20T00:56:34.624Z,93192.91
2019-01-20T00:56:57.330Z,93195.00
2019-01-20T00:57:20.065Z,93194.31
2019-01-20T00:57:43.670Z,93189.05
2019-01-20T00:58:06.350Z,93188.16
2019-01-20T00:58:29.010Z,93188.95
2019-01-20T00:58:51.904Z,93192.18
2019-01-20T00:59:14.430Z,93193.39
2019-01-20T00:59:37.091Z,93185.43
2019-01-20T00:59:59.690Z,93188.06
2019-01-20T01:00:23.529Z,93191.77
2019-01-20T01:00:46.250Z,93191.80
2019-01-20T01:01:09.370Z,93189.59
2019-01-20T01:01:32.050Z,93194.14
2019-01-20T01:01:54.830Z,93190.73
2019-01-20T01:02:18.051Z,93197.81
2019-01-20T01:02:40.910Z,93197.02
2019-01-20T01:03:03.424Z,93191.72
2019-01-20T01:03:26.151Z,93195.20
2019-01-20T01:03:48.864Z,93196.30
2019-01-20T01:04:11.650Z,93192.63
2019-01-20T01:04:34.330Z,93191.44
2019-01-20T01:04:57.025Z,93195.13
2019-01-20T01:05:20.170Z,93190.55
2019-01-20T01:05:42.790Z,93195.37
2019-01-20T01:06:05.930Z,93193.03
2019-01-20T01:06:28.544Z,93196.73
2019-01-20T01:06:53.854Z,93193.08
2019-01-20T01:07:16.482Z,93197.66
2019-01-20T01:07:40.231Z,93196.86
2019-01-20T01:08:03.177Z,93196.06
2019-01-20T01:08:25.791Z,93199.95
2019-01-20T01:08:48.511Z,93195.52
2019-01-20T01:09:11.104Z,93193.63
2019-01-20T01:09:33.949Z,93192.33
2019-01-20T01:09:56.591Z,93198.61
2019-01-20T01:10:19.313Z,93194.72
2019-01-20T01:10:42.289Z,93196.98
2019-01-20T01:11:05.529Z,93195.55
2019-01-20T01:11:31.831Z,93199.58
2019-01-20T01:11:52.430Z,93196.49
2019-01-20T01:12:16.329Z,93200.19
2019-01-20T01:12:39.930Z,93196.14
2019-01-20T01:13:03.690Z,93199.58
2019-01-20T01:13:26.629Z,93200.19
2019-01-20T01:13:49.411Z,93201.38
2019-01-20T01:14:12.222Z,93197.68
2019-01-20T01:14:34.830Z,93198.23
2019-01-20T01:14:57.611Z,93196.03
2019-01-20T01:15:21.347Z,93198.23
2019-01-20T01:15:44.090Z,93193.84
2019-01-20T01:16:06.809Z,93195.64
2019-01-20T01:16:29.490Z,93193.16
2019-01-20T01:16:52.810Z,93196.52
2019-01-20T01:17:15.510Z,93194.70
2019-01-20T01:17:38.183Z,93194.63
2019-01-20T01:18:00.831Z,93194.05
2019-01-20T01:18:23.470Z,93195.45
2019-01-20T01:18:46.031Z,93197.48
2019-01-20T01:19:08.590Z,93196.30
2019-01-20T01:19:31.311Z,93195.52
2019-01-20T01:19:53.991Z,93197.40
2019-01-20T01:20:16.871Z,93196.59
2019-01-20T01:20:39.428Z,93198.20
2019-01-20T01:21:02.421Z,93196.42
2019-01-20T01:21:25.091Z,93196.73
2019-01-20T01:21:47.690Z,93194.94
2019-01-20T01:22:10.350Z,93194.33
2019-01-20T01:22:33.050Z,93191.24
2019-01-20T01:22:55.673Z,93192.33
2019-01-20T01:23:18.251Z,93190.03
2019-01-20T01:23:40.891Z,93194.61
2019-01-20T01:24:03.392Z,93197.59
2019-01-20T01:24:27.690Z,93192.91
2019-01-20T01:24:50.305Z,93194.31
2019-01-20T01:25:13.110Z,93190.12
2019-01-20T01:25:35.832Z,93195.30
2019-01-20T01:25:58.491Z,93194.02
2019-01-20T01:26:21.231Z,93191.33
2019-01-20T01:26:44.630Z,93190.88
2019-01-20T01:27:07.310Z,93191.19
2019-01-20T01:27:30.350Z,93190.39
2019-01-20T01:27:53.449Z,93189.09
2019-01-20T01:28:16.151Z,93189.09
2019-01-20T01:28:38.998Z,93187.96
2019-01-20T01:29:01.563Z,93192.48
2019-01-20T01:29:24.332Z,93189.25
2019-01-20T01:29:47.171Z,93181.77
2019-01-20T01:30:09.777Z,93186.23
2019-01-20T01:30:32.371Z,93188.14
2019-01-20T01:30:55.104Z,93190.73
2019-01-20T01:31:17.731Z,93188.52
2019-01-20T01:31:40.269Z,93186.23
2019-01-20T01:32:02.809Z,93182.73
2019-01-20T01:32:25.511Z,93182.73
2019-01-20T01:32:48.238Z,93187.78
2019-01-20T01:33:10.990Z,93184.14
2019-01-20T01:33:33.571Z,93186.55
2019-01-20T01:33:56.289Z,93182.97
2019-01-20T01:34:20.410Z,93186.50
2019-01-20T01:34:43.449Z,93180.73
2019-01-20T01:35:08.209Z,93184.83
2019-01-20T01:35:30.831Z,93184.62
2019-01-20T01:35:53.471Z,93178.94
2019-01-20T01:36:16.131Z,93178.74
2019-01-20T01:36:38.785Z,93179.64
2019-01-20T01:37:01.641Z,93175.95
2019-01-20T01:37:24.511Z,93182.14
2019-01-20T01:37:47.071Z,93179.39
2019-01-20T01:38:09.752Z,93177.09
2019-01-20T01:38:32.383Z,93181.09
2019-01-20T01:38:55.070Z,93175.00
2019-01-20T01:39:17.812Z,93179.49
2019-01-20T01:39:40.331Z,93167.63
2019-01-20T01:40:02.819Z,93177.36
2019-01-20T01:40:25.390Z,93173.25
2019-01-20T01:40:48.489Z,93177.69
2019-01-20T01:41:11.310Z,93175.88
2019-01-20T01:41:39.019Z,93173.73
2019-01-20T01:41:58.464Z,93178.47
2019-01-20T01:42:22.031Z,93173.00
2019-01-20T01:42:44.630Z,93175.14
2019-01-20T01:43:07.349Z,93169.95
2019-01-20T01:43:30.250Z,93174.41
2019-01-20T01:43:52.970Z,93171.50
2019-01-20T01:44:16.270Z,93174.48
2019-01-20T01:44:38.871Z,93169.80
2019-01-20T01:45:01.463Z,93169.61
2019-01-20T01:45:27.091Z,93174.88
2019-01-20T01:45:49.820Z,93174.09
2019-01-20T01:46:12.438Z,93171.45
2019-01-20T01:46:35.170Z,93168.67
2019-01-20T01:46:59.170Z,93163.59
2019-01-20T01:47:21.752Z,93170.81
2019-01-20T01:47:44.389Z,93164.83
2019-01-20T01:48:06.972Z,93166.59
2019-01-20T01:48:30.195Z,93171.72
2019-01-20T01:48:52.908Z,93165.23
2019-01-20T01:49:15.904Z,93165.14
2019-01-20T01:49:38.624Z,93164.33
2019-01-20T01:50:01.373Z,93163.34
2019-01-20T01:50:24.090Z,93170.31
2019-01-20T01:50:47.110Z,93164.20
2019-01-20T01:51:09.791Z,93165.69
2019-01-20T01:51:32.545Z,93164.09
2019-01-20T01:51:55.331Z,93168.58
2019-01-20T01:52:18.054Z,93162.54
2019-01-20T01:52:40.810Z,93158.75
2019-01-20T01:53:03.331Z,93163.74
2019-01-20T01:53:26.510Z,93162.64
2019-01-20T01:53:49.090Z,93162.95
2019-01-20T01:54:11.971Z,93161.95
2019-01-20T01:54:35.111Z,93163.64
2019-01-20T01:54:57.963Z,93166.48
2019-01-20T01:55:20.670Z,93161.84
2019-01-20T01:55:43.790Z,93156.66
2019-01-20T01:56:06.891Z,93161.34
2019-01-20T01:56:29.430Z,93156.16
2019-01-20T01:56:51.929Z,93156.77
2019-01-20T01:57:14.611Z,93157.16
2019-01-20T01:57:37.256Z,93157.52
2019-01-20T01:58:00.011Z,93152.62
2019-01-20T01:58:22.785Z,93154.72
2019-01-20T01:58:45.510Z,93154.03
2019-01-20T01:59:08.192Z,93156.23
2019-01-20T01:59:31.013Z,93151.48
2019-01-20T01:59:53.664Z,93159.05
2019-01-20T02:00:16.389Z,93155.33
2019-01-20T02:00:39.071Z,93156.80
2019-01-20T02:01:01.700Z,93157.11
2019-01-20T02:01:24.310Z,93156.11
2019-01-20T02:01:47.030Z,93158.31
2019-01-20T02:02:09.911Z,93152.52
2019-01-20T02:02:32.531Z,93157.21
2019-01-20T02:02:55.190Z,93152.34
2019-01-20T02:03:18.030Z,93155.17
2019-01-20T02:03:40.931Z,93149.58
2019-01-20T02:04:03.451Z,93155.27
2019-01-20T02:04:26.625Z,93151.13
2019-01-20T02:04:49.329Z,93155.41
2019-01-20T02:05:12.240Z,93149.13
2019-01-20T02:05:34.851Z,93152.33
2019-01-20T02:05:57.551Z,93149.33
2019-01-20T02:06:20.274Z,93145.74
2019-01-20T02:06:43.051Z,93149.52
2019-01-20T02:07:05.664Z,93148.44
2019-01-20T02:07:28.314Z,93150.14
2019-01-20T02:07:50.970Z,93146.73
2019-01-20T02:08:14.170Z,93145.25
2019-01-20T02:08:36.951Z,93145.39
2019-01-20T02:08:59.649Z,93148.45
2019-01-20T02:09:22.232Z,93141.67
2019-01-20T02:09:44.831Z,93140.08
2019-01-20T02:10:07.466Z,93146.05
2019-01-20T02:10:30.110Z,93141.75
2019-01-20T02:10:52.731Z,93144.30
2019-01-20T02:11:15.410Z,93143.44
2019-01-20T02:11:38.304Z,93141.25
2019-01-20T02:12:01.170Z,93142.85
2019-01-20T02:12:23.870Z,93137.06
2019-01-20T02:12:46.473Z,93137.37
2019-01-20T02:13:09.210Z,93138.56
2019-01-20T02:13:31.861Z,93135.17
2019-01-20T02:13:55.250Z,93134.58
2019-01-20T02:14:17.979Z,93135.28
2019-01-20T02:14:40.492Z,93138.88
2019-01-20T02:15:03.029Z,93135.08
2019-01-20T02:15:26.465Z,93143.84
2019-01-20T02:15:49.184Z,93138.97
2019-01-20T02:16:12.226Z,93143.75
2019-01-20T02:16:34.945Z,93136.57
2019-01-20T02:16:57.711Z,93135.92
2019-01-20T02:17:20.291Z,93136.92
2019-01-20T02:17:42.950Z,93135.53
2019-01-20T02:18:06.033Z,93140.22
2019-01-20T02:18:28.750Z,93135.23
2019-01-20T02:18:51.330Z,93135.92
2019-01-20T02:19:13.984Z,93132.34
2019-01-20T02:19:36.669Z,93140.11
2019-01-20T02:19:59.744Z,93136.13
2019-01-20T02:20:24.130Z,93134.58
2019-01-20T02:20:46.834Z,93140.47
2019-01-20T02:21:09.550Z,93132.60
2019-01-20T02:21:32.728Z,93134.59
2019-01-20T02:21:55.309Z,93129.00
2019-01-20T02:22:18.571Z,93138.86
2019-01-20T02:22:41.170Z,93134.44
2019-01-20T02:23:03.744Z,93134.84
2019-01-20T02:23:26.459Z,93134.84
2019-01-20T02:23:49.502Z,93137.22
2019-01-20T02:24:12.590Z,93131.05
2019-01-20T02:24:35.313Z,93137.43
2019-01-20T02:24:58.410Z,93134.17
2019-01-20T02:25:21.130Z,93134.17
2019-01-20T02:25:43.912Z,93132.39
2019-01-20T02:26:06.711Z,93139.56
2019-01-20T02:26:31.089Z,93133.79
2019-01-20T02:26:54.090Z,93134.59
2019-01-20T02:27:17.183Z,93132.23
2019-01-20T02:27:40.051Z,93138.08
2019-01-20T02:28:02.556Z,93134.83
2019-01-20T02:28:25.349Z,93133.89
2019-01-20T02:28:48.091Z,93135.58
2019-01-20T02:29:11.044Z,93139.77
2019-01-20T02:29:33.750Z,93135.19
2019-01-20T02:29:56.531Z,93132.80
2019-01-20T02:30:19.632Z,93137.12
2019-01-20T02:30:42.631Z,93138.08
2019-01-20T02:31:05.349Z,93131.14
2019-01-20T02:31:28.091Z,93135.63
2019-01-20T02:31:51.190Z,93133.14
2019-01-20T02:32:13.852Z,93130.14
2019-01-20T02:32:36.570Z,93135.42
2019-01-20T02:32:59.651Z,93132.24
2019-01-20T02:33:22.312Z,93128.25
2019-01-20T02:33:45.021Z,93136.43
2019-01-20T02:34:08.050Z,93134.67
2019-01-20T02:34:31.251Z,93135.83
2019-01-20T02:34:54.070Z,93133.58
2019-01-20T02:35:16.816Z,93137.86
2019-01-20T02:35:39.971Z,93134.08
2019-01-20T02:36:02.536Z,93131.08
2019-01-20T02:36:25.113Z,93128.95
2019-01-20T02:36:47.812Z,93135.03
2019-01-20T02:37:10.412Z,93131.08
2019-01-20T02:37:32.970Z,93134.37
2019-01-20T02:37:56.153Z,93129.29
2019-01-20T02:38:18.943Z,93133.78
2019-01-20T02:38:41.988Z,93131.88
2019-01-20T02:39:05.435Z,93129.48
2019-01-20T02:39:28.129Z,93132.08
2019-01-20T02:39:50.787Z,93132.38
2019-01-20T02:40:13.871Z,93138.47
2019-01-20T02:40:36.550Z,93128.99
2019-01-20T02:40:59.696Z,93127.46
2019-01-20T02:41:22.371Z,93127.95
2019-01-20T02:41:45.011Z,93133.63
2019-01-20T02:42:07.711Z,93135.73
2019-01-20T02:42:32.002Z,93126.66
2019-01-20T02:42:55.105Z,93128.75
2019-01-20T02:43:17.825Z,93124.36
2019-01-20T02:43:40.864Z,93128.26
2019-01-20T02:44:03.398Z,93133.44
2019-01-20T02:44:26.130Z,93132.25
2019-01-20T02:44:49.148Z,93126.16
2019-01-20T02:45:11.793Z,93127.39
2019-01-20T02:45:34.430Z,93128.05
2019-01-20T02:45:57.605Z,93124.90
2019-01-20T02:46:20.330Z,93133.67
2019-01-20T02:46:42.991Z,93130.28
2019-01-20T02:47:05.750Z,93128.26
2019-01-20T02:47:28.571Z,93127.45
2019-01-20T02:47:51.610Z,93126.02
2019-01-20T02:48:14.333Z,93127.91
2019-01-20T02:48:36.930Z,93123.23
2019-01-20T02:48:59.571Z,93126.52
2019-01-20T02:49:22.430Z,93120.13
2019-01-20T02:49:45.138Z,93130.80
2019-01-20T02:50:07.933Z,93127.21
2019-01-20T02:50:30.877Z,93128.01
2019-01-20T02:50:53.505Z,93123.63
2019-01-20T02:51:16.271Z,93128.30
2019-01-20T02:51:38.911Z,93126.12
2019-01-20T02:52:01.882Z,93127.16
2019-01-20T02:52:24.711Z,93125.16
2019-01-20T02:52:47.424Z,93123.46
2019-01-20T02:53:10.349Z,93121.08
2019-01-20T02:53:32.941Z,93118.37
2019-01-20T02:53:55.651Z,93118.87
2019-01-20T02:54:18.627Z,93119.64
2019-01-20T02:54:41.343Z,93126.02
2019-01-20T02:55:04.030Z,93120.23
2019-01-20T02:55:26.810Z,93124.02
2019-01-20T02:55:49.510Z,93114.25
2019-01-20T02:56:12.090Z,93120.93
2019-01-20T02:56:34.672Z,93115.64
2019-01-20T02:56:57.352Z,93122.22
2019-01-20T02:57:20.131Z,93121.97
2019-01-20T02:57:43.745Z,93115.20
2019-01-20T02:58:06.432Z,93116.89
2019-01-20T02:58:29.289Z,93114.95
2019-01-20T02:58:52.051Z,93120.63
2019-01-20T02:59:15.587Z,93119.29
2019-01-20T02:59:38.305Z,93117.09
2019-01-20T03:00:00.991Z,93114.40
2019-01-20T03:00:23.744Z,93116.98
2019-01-20T03:00:46.430Z,93119.38
2019-01-20T03:01:09.185Z,93114.30
2019-01-20T03:01:31.929Z,93117.03
2019-01-20T03:01:54.530Z,93113.94
2019-01-20T03:02:17.570Z,93117.03
2019-01-20T03:02:40.291Z,93113.20
2019-01-20T03:03:02.939Z,93119.48
2019-01-20T03:03:25.590Z,93116.98
2019-01-20T03:03:48.224Z,93114.50
2019-01-20T03:04:10.792Z,93116.30
2019-01-20T03:04:35.130Z,93118.18
2019-01-20T03:04:57.715Z,93117.79
2019-01-20T03:05:20.387Z,93112.61
2019-01-20T03:05:43.175Z,93111.52
2019-01-20T03:06:05.890Z,93116.23
2019-01-20T03:06:28.545Z,93115.73
2019-01-20T03:06:51.289Z,93116.03
2019-01-20T03:07:13.973Z,93111.66
2019-01-20T03:07:36.590Z,93111.95
2019-01-20T03:07:59.372Z,93110.45
2019-01-20T03:08:22.070Z,93113.66
2019-01-20T03:08:44.749Z,93110.06
2019-01-20T03:09:08.470Z,93115.64
2019-01-20T03:09:31.041Z,93107.77
2019-01-20T03:09:53.668Z,93111.25
2019-01-20T03:10:16.345Z,93110.66
2019-01-20T03:10:38.910Z,93105.27
2019-01-20T03:11:01.612Z,93104.48
2019-01-20T03:11:24.311Z,93114.95
2019-01-20T03:11:46.970Z,93108.57
2019-01-20T03:12:09.981Z,93113.66
2019-01-20T03:12:32.671Z,93111.55
2019-01-20T03:12:55.790Z,93113.95
2019-01-20T03:13:18.490Z,93107.97
2019-01-20T03:13:41.188Z,93110.66
2019-01-20T03:14:03.906Z,93112.26
2019-01-20T03:14:26.658Z,93114.05
2019-01-20T03:14:49.668Z,93109.67
2019-01-20T03:15:12.511Z,93108.67
2019-01-20T03:15:35.312Z,93103.88
2019-01-20T03:15:57.934Z,93107.47
2019-01-20T03:16:20.895Z,93113.95
2019-01-20T03:16:43.585Z,93112.95
2019-01-20T03:17:06.300Z,93108.77
2019-01-20T03:17:29.610Z,93110.36
2019-01-20T03:17:52.340Z,93110.56
2019-01-20T03:18:14.979Z,93108.17
2019-01-20T03:18:38.784Z,93107.27
2019-01-20T03:19:01.484Z,93110.85
2019-01-20T03:19:24.192Z,93111.84
2019-01-20T03:19:46.890Z,93112.45
2019-01-20T03:20:09.984Z,93109.27
2019-01-20T03:20:32.709Z,93109.67
2019-01-20T03:20:55.371Z,93105.38
2019-01-20T03:21:18.784Z,93106.98
2019-01-20T03:21:41.507Z,93105.02
2019-01-20T03:22:04.153Z,93109.41
2019-01-20T03:22:26.944Z,93107.31
2019-01-20T03:22:49.764Z,93109.51
2019-01-20T03:23:12.450Z,93107.81
2019-01-20T03:23:35.425Z,93109.70
2019-01-20T03:23:58.242Z,93109.70
2019-01-20T03:24:20.865Z,93109.52
2019-01-20T03:24:43.570Z,93110.41
2019-01-20T03:25:06.252Z,93106.72
2019-01-20T03:25:29.015Z,93105.31
2019-01-20T03:25:51.970Z,93103.59
2019-01-20T03:26:17.432Z,93109.06
2019-01-20T03:26:40.064Z,93102.08
2019-01-20T03:27:03.109Z,93104.78
2019-01-20T03:27:25.750Z,93103.68
2019-01-20T03:27:48.550Z,93105.67
2019-01-20T03:28:11.650Z,93106.38
2019-01-20T03:28:34.351Z,93103.48
2019-01-20T03:28:57.411Z,93101.00
2019-01-20T03:29:20.272Z,93107.38
2019-01-20T03:29:42.990Z,93102.80
2019-01-20T03:30:05.533Z,93106.98
2019-01-20T03:30:28.478Z,93106.68
2019-01-20T03:30:51.077Z,93100.70
2019-01-20T03:31:13.652Z,93108.07
2019-01-20T03:31:36.613Z,93100.39
2019-01-20T03:31:59.172Z,93106.07
2019-01-20T03:32:21.712Z,93096.60
2019-01-20T03:32:46.096Z,93101.09
2019-01-20T03:33:08.868Z,93105.08
2019-01-20T03:33:31.570Z,93097.54
2019-01-20T03:33:54.252Z,93096.31
2019-01-20T03:34:16.790Z,93095.72
2019-01-20T03:34:39.631Z,93102.49
2019-01-20T03:35:02.540Z,93099.90
2019-01-20T03:35:25.270Z,93106.17
2019-01-20T03:35:47.991Z,93102.08
2019-01-20T03:36:10.625Z,93098.39
2019-01-20T03:36:33.660Z,93102.45
2019-01-20T03:36:56.756Z,93099.75
2019-01-20T03:37:19.770Z,93095.27
2019-01-20T03:37:42.489Z,93098.95
2019-01-20T03:38:05.049Z,93100.69
2019-01-20T03:38:27.610Z,93098.30
2019-01-20T03:38:50.270Z,93095.31
2019-01-20T03:39:13.890Z,93099.20
2019-01-20T03:39:36.490Z,93093.92
2019-01-20T03:39:59.105Z,93097.01
2019-01-20T03:40:21.873Z,93095.72
2019-01-20T03:40:44.950Z,93094.72
2019-01-20T03:41:07.572Z,93094.91
2019-01-20T03:41:30.305Z,93097.41
2019-01-20T03:41:53.024Z,93096.30
2019-01-20T03:42:15.743Z,93095.81
2019-01-20T03:42:38.453Z,93095.11
2019-01-20T03:43:01.186Z,93092.52
2019-01-20T03:43:23.892Z,93090.72
2019-01-20T03:43:46.514Z,93096.50
2019-01-20T03:44:09.192Z,93094.31
2019-01-20T03:44:31.910Z,93091.62
2019-01-20T03:44:54.632Z,93087.87
2019-01-20T03:45:17.289Z,93094.41
2019-01-20T03:45:39.970Z,93089.93
2019-01-20T03:46:02.492Z,93087.23
2019-01-20T03:46:25.091Z,93090.97
2019-01-20T03:46:48.490Z,93085.08
2019-01-20T03:47:11.991Z,93086.48
2019-01-20T03:47:34.732Z,93082.36
2019-01-20T03:47:57.450Z,93087.34
2019-01-20T03:48:20.790Z,93087.34
2019-01-20T03:48:43.352Z,93084.34
2019-01-20T03:49:05.945Z,93083.78
2019-01-20T03:49:28.790Z,93080.30
2019-01-20T03:49:51.470Z,93083.38
2019-01-20T03:50:14.113Z,93080.00
2019-01-20T03:50:36.790Z,93080.20
2019-01-20T03:50:59.791Z,93084.95
2019-01-20T03:51:22.553Z,93082.36
2019-01-20T03:51:45.344Z,93077.00
2019-01-20T03:52:08.062Z,93083.05
2019-01-20T03:52:30.784Z,93084.65
2019-01-20T03:52:53.453Z,93082.59
2019-01-20T03:53:16.333Z,93079.59
2019-01-20T03:53:39.089Z,93075.52
2019-01-20T03:54:01.781Z,93079.30
2019-01-20T03:54:24.482Z,93081.69
2019-01-20T03:54:47.170Z,93082.39
2019-01-20T03:55:09.711Z,93079.43
2019-01-20T03:55:32.546Z,93082.09
2019-01-20T03:55:55.670Z,93085.19
2019-01-20T03:56:18.305Z,93082.79
2019-01-20T03:56:40.850Z,93079.90
2019-01-20T03:57:03.371Z,93080.49
2019-01-20T03:57:26.010Z,93082.19
2019-01-20T03:57:49.179Z,93080.59
2019-01-20T03:58:11.904Z,93078.00
2019-01-20T03:58:34.511Z,93082.98
2019-01-20T03:58:57.550Z,93078.30
2019-01-20T03:59:20.370Z,93077.70
2019-01-20T03:59:43.074Z,93079.80
2019-01-20T04:01:25.410Z,93082.19
2019-01-20T04:01:48.024Z,93074.98
2019-01-20T04:02:11.129Z,93084.28
2019-01-20T04:02:33.729Z,93079.20
2019-01-20T04:03:00.811Z,93077.01
2019-01-20T04:03:23.533Z,93079.90
2019-01-20T04:03:46.150Z,93083.98
2019-01-20T04:04:09.147Z,93077.94
2019-01-20T04:04:31.871Z,93075.94
2019-01-20T04:04:54.549Z,93077.03
2019-01-20T04:05:17.189Z,93081.59
2019-01-20T04:05:39.990Z,93076.70
2019-01-20T04:06:02.591Z,93081.19
2019-01-20T04:06:25.349Z,93076.91
2019-01-20T04:06:48.011Z,93078.30
2019-01-20T04:07:10.786Z,93079.40
2019-01-20T04:07:33.430Z,93072.98
2019-01-20T04:07:56.243Z,93078.47
2019-01-20T04:08:18.940Z,93078.06
2019-01-20T04:08:42.029Z,93081.35
2019-01-20T04:09:06.370Z,93083.55
2019-01-20T04:09:29.050Z,93080.66
2019-01-20T04:09:51.811Z,93077.67
2019-01-20T04:10:17.173Z,93081.59
2019-01-20T04:10:39.830Z,93077.41
2019-01-20T04:11:02.518Z,93075.81
2019-01-20T04:11:25.210Z,93082.19
2019-01-20T04:11:47.907Z,93080.89
2019-01-20T04:12:10.624Z,93075.41
2019-01-20T04:12:33.350Z,93076.91
2019-01-20T04:12:56.110Z,93079.77
2019-01-20T04:13:19.271Z,93076.58
2019-01-20T04:13:41.951Z,93077.47
2019-01-20T04:14:04.543Z,93077.77
2019-01-20T04:14:27.309Z,93077.50
2019-01-20T04:14:49.951Z,93079.09
2019-01-20T04:15:12.850Z,93074.58
2019-01-20T04:15:36.270Z,93081.76
2019-01-20T04:15:59.272Z,93076.58
2019-01-20T04:16:21.973Z,93082.06
2019-01-20T04:16:45.613Z,93077.17
2019-01-20T04:17:08.329Z,93081.98
2019-01-20T04:17:31.181Z,93083.78
2019-01-20T04:17:53.741Z,93077.10
2019-01-20T04:18:16.351Z,93078.50
2019-01-20T04:18:39.136Z,93077.17
2019-01-20T04:19:01.710Z,93075.47
2019-01-20T04:19:24.510Z,93075.67
2019-01-20T04:19:47.312Z,93081.26
2019-01-20T04:20:09.970Z,93077.56
2019-01-20T04:20:32.558Z,93080.36
2019-01-20T04:20:55.152Z,93083.55
2019-01-20T04:21:18.194Z,93082.95
2019-01-20T04:21:41.130Z,93077.77
2019-01-20T04:22:03.733Z,93074.17
2019-01-20T04:22:26.509Z,93071.58
2019-01-20T04:22:49.070Z,93078.36
2019-01-20T04:23:11.641Z,93074.78
2019-01-20T04:23:34.410Z,93078.27
2019-01-20T04:23:57.482Z,93076.27
2019-01-20T04:24:20.212Z,93075.20
2019-01-20T04:24:44.191Z,93078.90
2019-01-20T04:25:06.970Z,93073.22
2019-01-20T04:25:29.632Z,93074.41
2019-01-20T04:25:52.370Z,93077.50
2019-01-20T04:26:15.070Z,93073.28
2019-01-20T04:26:37.824Z,93070.33
2019-01-20T04:27:00.471Z,93077.41
2019-01-20T04:27:23.450Z,93072.72
2019-01-20T04:27:46.238Z,93071.92
2019-01-20T04:28:08.950Z,93074.52
2019-01-20T04:28:31.745Z,93073.98
2019-01-20T04:28:54.550Z,93071.09
2019-01-20T04:29:17.184Z,93077.17
2019-01-20T04:29:41.350Z,93075.38
2019-01-20T04:30:03.904Z,93071.19